Time;durP1;ratioP1;P1;durP2;ratioP2;P2;SDS_P1;SDS_P2;PMS_P1;PMS_P2;Temp;Humidity;BMP_temperature;BMP_pressure;BME280_temperature;BME280_humidity;BME280_pressure;Samples;Min_cycle;Max_cycle;Signal;HPM_P1;HPM_P2
2022/04/01 00:00:12;;;;;;;4.80;1.17;;;4.80;69.10;;;;;;5045916;28;20119;-78
2022/04/01 00:02:39;;;;;;;6.28;1.20;;;4.80;69.40;;;;;;5031468;28;20040;-78
2022/04/01 00:05:06;;;;;;;5.82;0.98;;;4.80;69.50;;;;;;5035842;28;20536;-78
2022/04/01 00:07:33;;;;;;;5.00;1.08;;;4.80;68.30;;;;;;5038677;28;20441;-78
2022/04/01 00:09:59;;;;;;;5.07;1.20;;;4.80;67.70;;;;;;5041969;28;20504;-78
2022/04/01 00:12:25;;;;;;;6.97;1.23;;;4.80;67.30;;;;;;5038168;28;20028;-78
2022/04/01 00:14:50;;;;;;;11.90;1.58;;;4.80;67.80;;;;;;5034453;28;20082;-77
2022/04/01 00:17:16;;;;;;;9.43;1.30;;;4.80;67.60;;;;;;5037509;28;20095;-78
2022/04/01 00:19:42;;;;;;;8.45;1.20;;;4.80;67.50;;;;;;5043222;28;20029;-78
2022/04/01 00:22:07;;;;;;;4.72;1.25;;;4.80;67.70;;;;;;5043958;28;20431;-78
2022/04/01 00:24:33;;;;;;;4.55;1.45;;;4.70;67.70;;;;;;5044760;28;20059;-78
2022/04/01 00:27:00;;;;;;;7.13;1.40;;;4.70;67.90;;;;;;5034271;28;20036;-78
2022/04/01 00:29:26;;;;;;;4.88;1.15;;;4.70;67.70;;;;;;5039721;28;20039;-78
2022/04/01 00:31:58;;;;;;;8.43;1.30;;;4.70;67.80;;;;;;5041427;28;20025;-78
2022/04/01 00:34:29;;;;;;;6.10;1.20;;;4.60;67.70;;;;;;5034584;28;20485;-78
2022/04/01 00:36:57;;;;;;;7.13;1.40;;;4.70;67.70;;;;;;5034755;28;20021;-78
2022/04/01 00:39:24;;;;;;;5.80;1.20;;;4.60;68.10;;;;;;5030604;28;20095;-78
2022/04/01 00:41:51;;;;;;;4.63;1.20;;;4.60;68.10;;;;;;5044184;28;20032;-78
2022/04/01 00:44:23;;;;;;;4.80;1.17;;;4.50;68.30;;;;;;5040005;28;20041;-78
2022/04/01 00:46:51;;;;;;;7.75;1.60;;;4.50;68.70;;;;;;5036082;28;20139;-79
2022/04/01 00:49:18;;;;;;;3.90;1.52;;;4.50;68.50;;;;;;5037001;28;20531;-77
2022/04/01 00:51:45;;;;;;;4.15;1.40;;;4.50;68.60;;;;;;5043474;28;20028;-79
2022/04/01 00:54:12;;;;;;;7.55;1.25;;;4.50;68.20;;;;;;5035939;28;20029;-79
2022/04/01 00:56:39;;;;;;;6.78;1.20;;;4.50;68.60;;;;;;5038326;28;20025;-79
2022/04/01 00:59:06;;;;;;;7.22;1.30;;;4.40;67.90;;;;;;5041919;28;20112;-79
2022/04/01 01:01:34;;;;;;;4.10;1.27;;;4.40;69.20;;;;;;5042887;28;20036;-79
2022/04/01 01:04:07;;;;;;;7.60;1.33;;;4.40;67.80;;;;;;5034169;28;20040;-79
2022/04/01 01:06:37;;;;;;;7.47;1.38;;;4.40;67.70;;;;;;5039740;28;20075;-79
2022/04/01 01:09:03;;;;;;;6.85;1.45;;;4.40;67.60;;;;;;5045648;28;20044;-79
2022/04/01 01:11:31;;;;;;;3.92;1.38;;;4.40;67.90;;;;;;5042019;28;20025;-78
2022/04/01 01:13:57;;;;;;;7.72;1.23;;;4.30;67.80;;;;;;5032319;28;20059;-79
2022/04/01 01:16:23;;;;;;;5.15;1.25;;;4.30;67.40;;;;;;5034841;28;20450;-80
2022/04/01 01:19:11;;;;;;;5.18;1.40;;;4.30;67.50;;;;;;5041358;28;20148;-79
2022/04/01 01:21:39;;;;;;;4.22;1.08;;;4.30;67.40;;;;;;5033778;28;20036;-79
2022/04/01 01:24:07;;;;;;;4.63;1.02;;;4.30;67.00;;;;;;5046288;28;20032;-79
2022/04/01 01:26:36;;;;;;;5.97;1.27;;;4.30;66.90;;;;;;5036224;28;20033;-79
2022/04/01 01:29:04;;;;;;;5.05;1.55;;;4.30;66.60;;;;;;5043802;28;20033;-79
2022/04/01 01:31:30;;;;;;;5.20;1.20;;;4.30;67.20;;;;;;5044334;28;20040;-79
2022/04/01 01:33:57;;;;;;;4.75;1.02;;;4.30;66.60;;;;;;5046238;28;20547;-78
2022/04/01 01:36:25;;;;;;;5.45;1.27;;;4.30;66.20;;;;;;5033984;28;20029;-79
2022/04/01 01:38:51;;;;;;;6.72;1.33;;;4.30;66.60;;;;;;5051546;28;20043;-79
2022/04/01 01:41:18;;;;;;;6.75;1.30;;;4.20;66.70;;;;;;5037794;28;20030;-78
2022/04/01 01:43:44;;;;;;;5.60;1.05;;;4.30;66.90;;;;;;5042540;28;20618;-78
2022/04/01 01:46:11;;;;;;;8.30;1.00;;;4.20;66.80;;;;;;5045141;28;20116;-78
2022/04/01 01:48:37;;;;;;;3.88;1.00;;;4.20;66.70;;;;;;5040301;28;20049;-78
2022/04/01 01:56:33;;;;;;;7.25;1.15;;;4.20;67.10;;;;;;5045645;28;20086;-78
2022/04/01 01:58:59;;;;;;;5.70;1.08;;;4.20;66.40;;;;;;5043585;28;20029;-79
2022/04/01 02:01:25;;;;;;;3.60;0.90;;;4.20;67.00;;;;;;5046639;28;20024;-78
2022/04/01 02:03:51;;;;;;;3.30;0.90;;;4.10;67.10;;;;;;5044754;28;20010;-78
2022/04/01 02:06:21;;;;;;;7.63;1.20;;;4.20;66.50;;;;;;5036270;28;20033;-78
2022/04/01 02:08:51;;;;;;;9.18;1.27;;;4.20;66.60;;;;;;5045761;28;20037;-77
2022/04/01 02:11:18;;;;;;;5.75;1.20;;;4.20;67.00;;;;;;5043253;28;20021;-77
2022/04/01 02:13:45;;;;;;;4.85;1.00;;;4.10;67.20;;;;;;5040897;28;20041;-77
2022/04/01 02:16:12;;;;;;;4.60;1.25;;;4.10;67.40;;;;;;5043199;28;20476;-77
2022/04/01 02:18:37;;;;;;;4.75;1.00;;;4.10;67.10;;;;;;5045927;28;20456;-77
2022/04/01 02:21:10;;;;;;;4.38;0.90;;;4.10;67.00;;;;;;5039169;28;20082;-77
2022/04/01 02:23:38;;;;;;;6.10;1.33;;;4.10;67.10;;;;;;5047033;28;20107;-77
2022/04/01 02:26:04;;;;;;;4.35;1.00;;;4.00;67.30;;;;;;5048346;28;20021;-77
2022/04/01 02:28:29;;;;;;;5.13;1.17;;;4.00;67.20;;;;;;5037363;28;20500;-77
2022/04/01 02:30:55;;;;;;;9.90;1.15;;;4.00;67.30;;;;;;5034285;28;20025;-77
2022/04/01 02:33:21;;;;;;;5.70;1.00;;;4.00;67.20;;;;;;5031735;28;20037;-76
2022/04/01 02:35:47;;;;;;;12.20;1.80;;;4.00;66.90;;;;;;5051723;28;20480;-76
2022/04/01 02:38:13;;;;;;;4.10;0.90;;;4.00;67.20;;;;;;5038044;28;20033;-76
2022/04/01 02:40:38;;;;;;;4.22;0.90;;;4.00;67.20;;;;;;5035393;28;20022;-76
2022/04/01 02:43:04;;;;;;;5.57;1.00;;;4.00;67.20;;;;;;5033085;28;20105;-76
2022/04/01 02:45:30;;;;;;;5.50;0.90;;;4.00;67.20;;;;;;5045901;28;20025;-76
2022/04/01 02:47:56;;;;;;;6.05;1.00;;;4.00;67.40;;;;;;5048186;28;20053;-76
2022/04/01 02:50:22;;;;;;;5.57;0.90;;;3.90;67.50;;;;;;5036733;28;20098;-76
2022/04/01 02:52:47;;;;;;;4.70;1.02;;;3.90;67.60;;;;;;5044028;28;20036;-77
2022/04/01 02:55:13;;;;;;;7.22;0.90;;;3.90;67.40;;;;;;5041617;28;20666;-77
2022/04/01 02:57:39;;;;;;;5.68;1.10;;;3.90;67.60;;;;;;5042835;28;20033;-77
2022/04/01 03:00:09;;;;;;;6.18;0.98;;;3.90;67.60;;;;;;5042597;28;20411;-75
2022/04/01 03:02:38;;;;;;;6.45;1.02;;;3.90;67.40;;;;;;5049867;28;20586;-76
2022/04/01 03:05:08;;;;;;;3.95;1.08;;;3.90;66.90;;;;;;5039367;28;20053;-76
2022/04/01 03:07:34;;;;;;;4.38;1.00;;;3.90;66.60;;;;;;5040686;28;20068;-76
2022/04/01 03:09:59;;;;;;;3.95;0.95;;;4.00;65.70;;;;;;5037690;28;20068;-76
2022/04/01 03:12:25;;;;;;;7.40;1.05;;;4.00;65.90;;;;;;5039389;28;20021;-76
2022/04/01 03:14:51;;;;;;;3.95;1.00;;;4.00;65.60;;;;;;5035454;28;20484;-76
2022/04/01 03:17:17;;;;;;;5.53;1.40;;;4.00;66.20;;;;;;5041566;28;20024;-76
2022/04/01 03:19:44;;;;;;;3.33;0.82;;;4.00;65.80;;;;;;5044278;28;20074;-76
2022/04/01 03:22:10;;;;;;;6.13;1.10;;;4.00;65.60;;;;;;5043789;28;20026;-76
2022/04/01 03:24:36;;;;;;;7.90;1.80;;;4.00;65.90;;;;;;5043630;28;20033;-76
2022/04/01 03:27:03;;;;;;;4.30;0.80;;;4.10;65.50;;;;;;5044278;28;20024;-79
2022/04/01 03:29:30;;;;;;;5.15;1.02;;;4.00;65.20;;;;;;5036933;28;20037;-76
2022/04/01 03:31:56;;;;;;;6.45;1.10;;;4.00;65.10;;;;;;5044606;28;20048;-77
2022/04/01 03:34:22;;;;;;;6.10;0.90;;;4.00;65.40;;;;;;5043023;28;20651;-76
2022/04/01 03:36:47;;;;;;;6.53;1.20;;;4.00;65.60;;;;;;5038802;28;20084;-76
2022/04/01 03:39:14;;;;;;;4.15;0.80;;;4.00;65.50;;;;;;5039838;28;20040;-76
2022/04/01 03:41:40;;;;;;;5.13;0.88;;;4.00;65.80;;;;;;5041720;28;20060;-77
2022/04/01 03:44:06;;;;;;;5.32;1.23;;;3.90;66.20;;;;;;5035223;28;20546;-76
2022/04/01 03:47:02;;;;;;;4.47;1.10;;;3.90;66.50;;;;;;5029344;28;20055;-77
2022/04/01 03:49:32;;;;;;;5.07;0.88;;;3.90;66.50;;;;;;5032842;28;20146;-76
2022/04/01 03:51:59;;;;;;;3.97;1.00;;;3.90;66.70;;;;;;5037491;28;20025;-80
2022/04/01 03:54:25;;;;;;;6.05;0.98;;;3.90;66.70;;;;;;5041761;28;20029;-79
2022/04/01 03:56:58;;;;;;;7.53;1.33;;;3.90;67.00;;;;;;5047023;28;20056;-84
2022/04/01 03:59:26;;;;;;;6.85;1.23;;;3.80;67.20;;;;;;5045189;28;20033;-75
2022/04/01 04:01:53;;;;;;;4.78;0.80;;;3.80;67.20;;;;;;5038107;28;20021;-79
2022/04/01 04:04:20;;;;;;;7.80;1.55;;;3.80;67.40;;;;;;5039267;28;20029;-78
2022/04/01 04:06:47;;;;;;;4.38;0.90;;;3.80;67.60;;;;;;5038325;28;20025;-80
2022/04/01 04:09:14;;;;;;;4.00;0.90;;;3.80;68.00;;;;;;5046088;28;20033;-80
2022/04/01 04:11:40;;;;;;;6.47;1.08;;;3.80;68.00;;;;;;5038299;28;20021;-79
2022/04/01 04:14:06;;;;;;;5.70;1.33;;;3.80;68.20;;;;;;5037541;28;20427;-77
2022/04/01 04:17:08;;;;;;;4.88;1.20;;;3.80;68.30;;;;;;5039661;28;20055;-78
2022/04/01 04:20:04;;;;;;;6.50;1.10;;;3.80;68.60;;;;;;5033674;28;20116;-78
2022/04/01 04:22:50;;;;;;;3.45;1.10;;;3.80;68.80;;;;;;5043469;28;20024;-77
2022/04/01 04:25:21;;;;;;;4.10;1.00;;;3.70;69.10;;;;;;5038717;28;20051;-79
2022/04/01 04:27:58;;;;;;;3.55;0.90;;;3.70;69.70;;;;;;5032493;28;20048;-77
2022/04/01 04:30:35;;;;;;;8.38;1.30;;;3.70;70.00;;;;;;5042112;28;20132;-76
2022/04/01 04:33:08;;;;;;;4.68;1.08;;;3.70;70.20;;;;;;5033817;28;20031;-77
2022/04/01 04:35:37;;;;;;;4.00;1.00;;;3.60;70.60;;;;;;5041322;28;20405;-76
2022/04/01 04:38:07;;;;;;;3.22;1.00;;;3.60;71.20;;;;;;5035486;28;20037;-77
2022/04/01 04:40:34;;;;;;;3.90;1.02;;;3.60;71.30;;;;;;5036395;28;20531;-77
2022/04/01 04:43:01;;;;;;;3.65;0.85;;;3.50;71.80;;;;;;5033861;28;20033;-77
2022/04/01 04:45:28;;;;;;;3.25;1.05;;;3.50;72.50;;;;;;5033899;28;20099;-77
2022/04/01 04:47:54;;;;;;;5.50;1.48;;;3.50;72.70;;;;;;5040257;28;20049;-78
2022/04/01 04:53:43;;;;;;;3.80;1.00;;;3.50;73.70;;;;;;5041964;28;20515;-79
2022/04/01 04:56:09;;;;;;;6.47;1.55;;;3.50;73.80;;;;;;5041642;28;20039;-77
2022/04/01 04:58:40;;;;;;;3.83;1.10;;;3.50;74.20;;;;;;5044804;28;20025;-76
2022/04/01 05:01:38;;;;;;;7.30;1.83;;;3.40;74.80;;;;;;5043860;28;20025;-77
2022/04/01 05:04:09;;;;;;;8.30;1.42;;;3.40;75.50;;;;;;5037489;28;20037;-77
2022/04/01 05:06:44;;;;;;;7.63;1.42;;;3.40;76.00;;;;;;5049488;28;20035;-76
2022/04/01 05:09:24;;;;;;;6.00;1.35;;;3.40;75.90;;;;;;5043585;28;20037;-77
2022/04/01 05:12:10;;;;;;;6.15;1.33;;;3.40;76.40;;;;;;5041154;28;20032;-78
2022/04/01 05:14:57;;;;;;;6.38;1.30;;;3.30;77.50;;;;;;5048015;28;20033;-77
2022/04/01 05:17:35;;;;;;;8.88;1.65;;;3.30;77.00;;;;;;5048142;28;20057;-76
2022/04/01 05:20:02;;;;;;;9.45;1.40;;;3.30;77.10;;;;;;5042989;28;20102;-77
2022/04/01 05:22:37;;;;;;;10.82;1.70;;;3.30;77.20;;;;;;5043245;28;20040;-78
2022/04/01 05:25:04;;;;;;;4.50;1.40;;;3.30;77.20;;;;;;5047978;28;20501;-79
2022/04/01 05:27:46;;;;;;;5.47;1.30;;;3.20;77.50;;;;;;5039245;28;20037;-78
2022/04/01 05:30:14;;;;;;;5.63;1.50;;;3.20;77.30;;;;;;5033898;28;20032;-79
2022/04/01 05:32:53;;;;;;;5.63;1.60;;;3.20;77.40;;;;;;5037644;28;20024;-78
2022/04/01 05:35:20;;;;;;;6.97;1.40;;;3.20;77.70;;;;;;5044460;28;20025;-81
2022/04/01 05:37:48;;;;;;;8.30;1.95;;;3.20;78.40;;;;;;5037435;28;20025;-77
2022/04/01 05:40:16;;;;;;;4.20;1.52;;;3.20;78.50;;;;;;5037055;28;20029;-77
2022/04/01 05:42:46;;;;;;;6.32;1.63;;;3.20;78.70;;;;;;5048564;28;20495;-78
2022/04/01 05:45:12;;;;;;;7.65;1.75;;;3.30;79.30;;;;;;5034619;28;20029;-78
2022/04/01 05:47:39;;;;;;;5.05;1.45;;;3.30;79.60;;;;;;5013731;28;20045;-78
2022/04/01 05:50:06;;;;;;;5.85;1.60;;;3.30;79.70;;;;;;5039131;28;20056;-77
2022/04/01 05:52:36;;;;;;;9.13;1.88;;;3.30;79.90;;;;;;5033369;28;20022;-78
2022/04/01 05:55:03;;;;;;;7.90;1.83;;;3.30;79.70;;;;;;5045414;28;20021;-79
2022/04/01 05:57:29;;;;;;;10.80;1.77;;;3.40;79.70;;;;;;5039774;28;20056;-78
2022/04/01 05:59:54;;;;;;;5.70;1.83;;;3.40;79.70;;;;;;5050137;28;20064;-78
2022/04/01 06:02:42;;;;;;;5.72;1.63;;;3.50;79.70;;;;;;5037014;28;20507;-78
2022/04/01 06:05:41;;;;;;;8.23;2.20;;;3.50;79.10;;;;;;5043455;28;20037;-79
2022/04/01 06:08:19;;;;;;;12.15;2.45;;;3.60;78.70;;;;;;5038561;28;20033;-79
2022/04/01 06:10:59;;;;;;;5.07;1.63;;;3.70;78.00;;;;;;5043144;28;20488;-78
2022/04/01 06:13:51;;;;;;;8.75;1.80;;;3.80;77.60;;;;;;5038138;28;20052;-78
2022/04/01 06:16:29;;;;;;;6.20;1.50;;;4.00;77.00;;;;;;5036725;28;20105;-78
2022/04/01 06:19:19;;;;;;;5.97;1.63;;;4.10;76.30;;;;;;5035642;28;20043;-79
2022/04/01 06:21:58;;;;;;;7.07;1.60;;;4.30;75.50;;;;;;5034342;28;20026;-78
2022/04/01 06:24:55;;;;;;;8.38;1.30;;;5.60;70.60;;;;;;5031029;28;20560;-78
2022/04/01 06:27:28;;;;;;;8.43;1.67;;;7.10;62.70;;;;;;4967096;28;20070;-80
2022/04/01 06:30:11;;;;;;;5.25;1.30;;;8.10;57.60;;;;;;4967439;28;20134;-79
2022/04/01 06:33:04;;;;;;;7.65;1.75;;;9.00;54.30;;;;;;4968630;28;20042;-77
2022/04/01 06:36:10;;;;;;;5.03;1.45;;;9.80;50.70;;;;;;4969105;28;20549;-79
2022/04/01 06:38:48;;;;;;;8.77;2.08;;;10.80;47.10;;;;;;4969968;28;20038;-80
2022/04/01 06:41:21;;;;;;;4.07;1.30;;;11.60;44.60;;;;;;4969747;28;20045;-80
2022/04/01 06:43:48;;;;;;;5.72;1.40;;;12.30;42.60;;;;;;4968729;28;20054;-80
2022/04/01 06:46:15;;;;;;;5.22;1.30;;;13.00;40.40;;;;;;4969092;28;20035;-79
2022/04/01 06:48:43;;;;;;;5.00;1.30;;;13.50;39.20;;;;;;4970499;28;20510;-80
2022/04/01 06:51:09;;;;;;;8.13;1.52;;;14.10;37.50;;;;;;4960084;28;20036;-80
2022/04/01 06:53:36;;;;;;;7.88;1.90;;;14.60;36.10;;;;;;4969827;28;20093;-80
2022/04/01 06:56:05;;;;;;;6.25;1.20;;;15.10;34.30;;;;;;4967976;28;20027;-79
2022/04/01 06:58:31;;;;;;;5.32;1.50;;;15.60;33.50;;;;;;4965576;28;20050;-82
2022/04/01 07:00:58;;;;;;;5.20;1.40;;;16.20;32.00;;;;;;4967791;28;20186;-83
2022/04/01 07:03:24;;;;;;;8.38;1.20;;;16.70;30.80;;;;;;4977336;28;20045;-81
2022/04/01 07:05:51;;;;;;;6.80;1.30;;;17.20;29.60;;;;;;5051909;28;20025;-81
2022/04/01 07:08:19;;;;;;;5.65;1.17;;;17.70;28.80;;;;;;5040828;28;20377;-80
2022/04/01 07:10:45;;;;;;;4.78;1.17;;;18.20;27.70;;;;;;5039873;28;20041;-82
2022/04/01 07:13:11;;;;;;;5.85;1.30;;;18.60;27.20;;;;;;5040504;28;20033;-80
2022/04/01 07:15:37;;;;;;;4.55;1.23;;;19.00;26.90;;;;;;5047654;28;20550;-80
2022/04/01 07:18:03;;;;;;;5.28;1.00;;;19.50;26.20;;;;;;5041561;28;20033;-80
2022/04/01 07:20:29;;;;;;;7.78;1.55;;;19.90;26.40;;;;;;5048228;28;20112;-79
2022/04/01 07:22:55;;;;;;;5.68;1.23;;;20.40;25.10;;;;;;5037141;28;20053;-80
2022/04/01 07:25:23;;;;;;;3.95;1.08;;;21.00;23.90;;;;;;5046276;28;20037;-80
2022/04/01 07:27:53;;;;;;;6.47;1.33;;;21.30;23.80;;;;;;5040645;28;20033;-80
2022/04/01 07:30:22;;;;;;;6.60;1.20;;;21.80;23.20;;;;;;5042101;28;20138;-80
2022/04/01 07:32:54;;;;;;;4.38;1.08;;;22.20;22.70;;;;;;5046461;28;20136;-79
2022/04/01 07:35:21;;;;;;;8.75;1.40;;;22.70;22.00;;;;;;5038919;28;20124;-79
2022/04/01 07:37:47;;;;;;;5.32;1.20;;;22.90;21.00;;;;;;5038234;28;20116;-79
2022/04/01 07:40:15;;;;;;;3.72;1.23;;;23.20;21.10;;;;;;5041124;28;20028;-79
2022/04/01 07:42:42;;;;;;;7.32;1.30;;;23.40;21.20;;;;;;5037846;28;20025;-78
2022/04/01 07:45:09;;;;;;;4.63;1.17;;;23.90;20.70;;;;;;5031202;28;20033;-81
2022/04/01 07:47:35;;;;;;;6.32;1.50;;;24.30;19.90;;;;;;5043989;28;20041;-79
2022/04/01 07:50:04;;;;;;;4.82;1.30;;;24.60;19.50;;;;;;5041169;28;20048;-82
2022/04/01 07:52:40;;;;;;;5.63;1.20;;;24.80;19.70;;;;;;5043775;28;20033;-81
2022/04/01 07:55:08;;;;;;;13.85;1.50;;;25.20;18.70;;;;;;5043838;28;20029;-82
2022/04/01 07:57:36;;;;;;;6.05;1.40;;;25.50;18.40;;;;;;5048010;28;20017;-80
2022/04/01 08:00:04;;;;;;;7.85;1.50;;;25.80;18.20;;;;;;5033959;28;20036;-81
2022/04/01 08:02:33;;;;;;;7.40;1.20;;;26.20;17.80;;;;;;5045871;28;20083;-81
2022/04/01 08:05:02;;;;;;;5.90;1.20;;;26.50;17.70;;;;;;5038511;28;20029;-80
2022/04/01 08:07:30;;;;;;;6.40;1.30;;;26.70;17.00;;;;;;5038129;28;20851;-83
2022/04/01 08:09:57;;;;;;;3.75;1.00;;;27.10;16.80;;;;;;5044435;28;20075;-83
2022/04/01 08:12:23;;;;;;;4.90;1.10;;;27.20;16.20;;;;;;5046527;28;20024;-83
2022/04/01 08:14:48;;;;;;;6.38;1.20;;;27.40;16.70;;;;;;5046766;28;20041;-81
2022/04/01 08:17:15;;;;;;;5.85;1.08;;;27.80;16.30;;;;;;5043135;28;20514;-82
2022/04/01 08:19:42;;;;;;;7.63;1.20;;;28.20;15.50;;;;;;5042250;28;20056;-82
2022/04/01 08:22:09;;;;;;;6.57;1.20;;;28.10;15.30;;;;;;5045247;28;20507;-82
2022/04/01 08:24:35;;;;;;;6.63;1.30;;;28.30;15.60;;;;;;5032765;28;20492;-82
2022/04/01 08:27:01;;;;;;;4.55;1.10;;;28.80;15.40;;;;;;5033868;28;20029;-81
2022/04/01 08:29:29;;;;;;;6.00;1.17;;;29.30;15.20;;;;;;5036662;28;20032;-80
2022/04/01 08:31:56;;;;;;;7.15;1.15;;;29.50;14.70;;;;;;5040164;28;20072;-80
2022/04/01 08:34:22;;;;;;;6.05;1.00;;;29.80;14.90;;;;;;5043661;28;20033;-79
2022/04/01 10:11:38;;;;;;;6.18;1.25;;;34.80;12.50;;;;;;3874946;28;20040;-73
2022/04/01 10:14:14;;;;;;;5.45;1.25;;;35.90;11.90;;;;;;5029858;28;20051;-74
2022/04/01 10:16:45;;;;;;;6.22;1.27;;;36.30;11.00;;;;;;5046517;28;20029;-73
2022/04/01 10:19:21;;;;;;;4.90;0.93;;;34.30;12.30;;;;;;5050611;28;20115;-73
2022/04/01 10:21:47;;;;;;;6.43;1.15;;;31.90;13.50;;;;;;5043164;28;20022;-73
2022/04/01 10:24:13;;;;;;;5.95;1.20;;;31.50;13.50;;;;;;5036980;28;20040;-74
2022/04/01 10:27:03;;;;;;;6.65;1.50;;;34.00;12.30;;;;;;5042628;28;20029;-73
2022/04/01 10:29:29;;;;;;;7.35;1.52;;;32.60;11.80;;;;;;5008246;28;20069;-74
2022/04/01 10:32:15;;;;;;;5.85;1.30;;;31.30;12.80;;;;;;5034822;28;20079;-75
2022/04/01 10:34:49;;;;;;;4.20;1.38;;;31.20;13.60;;;;;;5025206;28;20430;-74
2022/04/01 10:37:16;;;;;;;6.63;1.30;;;33.00;12.60;;;;;;5047292;28;20029;-73
2022/04/01 10:39:51;;;;;;;4.53;1.50;;;33.90;10.70;;;;;;5035768;28;20086;-74
2022/04/01 10:42:17;;;;;;;8.52;1.50;;;33.50;11.10;;;;;;5048473;28;20032;-74
2022/04/01 10:44:51;;;;;;;5.82;1.30;;;32.90;11.90;;;;;;5049071;28;20041;-73
2022/04/01 10:53:48;;;;;;;5.65;1.50;;;26.40;16.10;;;;;;4882708;29;20506;-74
2022/04/01 10:56:28;;;;;;;4.38;1.33;;;26.20;17.00;;;;;;4889989;29;20037;-73
2022/04/01 10:59:06;;;;;;;5.85;1.40;;;24.10;19.20;;;;;;4890093;29;20128;-73
2022/04/01 11:01:37;;;;;;;5.88;1.50;;;20.60;21.70;;;;;;4882583;29;20045;-73
2022/04/01 11:04:12;;;;;;;7.47;1.67;;;20.70;22.30;;;;;;4890786;29;20181;-73
2022/04/01 11:06:50;;;;;;;6.93;1.38;;;26.10;17.20;;;;;;4890278;29;20032;-73
2022/04/01 11:09:36;;;;;;;5.63;1.35;;;26.80;17.10;;;;;;4889363;29;20043;-78
2022/04/01 11:12:20;;;;;;;7.10;1.50;;;30.70;14.20;;;;;;4889954;29;20112;-74
2022/04/01 11:15:09;;;;;;;7.80;1.60;;;32.60;12.90;;;;;;4891823;29;20040;-74
2022/04/01 11:17:35;;;;;;;5.47;1.30;;;33.90;12.20;;;;;;4892144;29;20096;-73
2022/04/01 11:20:21;;;;;;;6.75;1.50;;;31.70;13.10;;;;;;4890336;29;20691;-73
2022/04/01 11:22:52;;;;;;;5.15;1.35;;;28.00;14.40;;;;;;4890314;29;20997;-73
2022/04/01 11:25:24;;;;;;;6.22;1.38;;;27.50;15.00;;;;;;4937316;28;20465;-73
2022/04/01 11:27:56;;;;;;;5.00;1.35;;;29.80;13.90;;;;;;5032134;28;20040;-74
2022/04/01 11:30:29;;;;;;;6.00;1.65;;;32.70;12.50;;;;;;5047443;28;20385;-74
2022/04/01 11:32:57;;;;;;;5.40;1.40;;;31.20;13.80;;;;;;5049249;28;20024;-73
2022/04/01 11:35:25;;;;;;;10.05;1.40;;;29.30;15.00;;;;;;5045049;28;20102;-73
2022/04/01 11:37:52;;;;;;;5.72;1.30;;;27.30;16.40;;;;;;5047184;28;20029;-73
2022/04/01 11:40:30;;;;;;;5.05;1.50;;;25.50;17.40;;;;;;5048308;28;20025;-73
2022/04/01 11:42:57;;;;;;;5.82;1.40;;;22.70;19.10;;;;;;5043792;28;20053;-72
2022/04/01 11:45:24;;;;;;;5.55;1.40;;;22.40;19.80;;;;;;5039822;28;20116;-73
2022/04/01 11:47:50;;;;;;;5.25;1.50;;;21.50;21.10;;;;;;5031033;28;20029;-73
2022/04/01 11:50:19;;;;;;;7.43;1.40;;;20.20;22.80;;;;;;5046909;28;20082;-73
2022/04/01 11:52:48;;;;;;;5.35;1.30;;;18.00;23.70;;;;;;5046897;28;20491;-73
2022/04/01 11:55:19;;;;;;;6.22;1.40;;;17.80;24.50;;;;;;5041742;28;20020;-74
2022/04/01 11:57:46;;;;;;;4.55;1.60;;;17.60;25.80;;;;;;5047002;28;20125;-74
2022/04/01 12:00:15;;;;;;;6.05;2.15;;;16.60;27.20;;;;;;5046695;28;20120;-74
2022/04/01 12:02:42;;;;;;;6.63;2.22;;;16.40;29.20;;;;;;5048038;28;20024;-74
2022/04/01 12:05:10;;;;;;;6.60;1.95;;;16.20;29.90;;;;;;5044224;28;20055;-74
2022/04/01 12:10:29;;;;;;;5.22;1.88;;;20.50;25.00;;;;;;5047364;28;20090;-74
2022/04/01 12:12:56;;;;;;;4.82;1.65;;;25.00;20.30;;;;;;5046738;28;20033;-74
2022/04/01 12:15:36;;;;;;;6.90;2.10;;;24.20;20.70;;;;;;5039720;28;20025;-74
2022/04/01 12:18:06;;;;;;;;;;;21.80;22.80;;;;;;5029410;28;20029;-74
2022/04/01 12:20:42;;;;;;;7.05;2.22;;;18.20;27.50;;;;;;5041586;28;19969;-74
2022/04/01 12:23:08;;;;;;;7.22;1.92;;;21.30;24.90;;;;;;5040586;28;20028;-74
2022/04/01 12:25:37;;;;;;;4.93;1.85;;;21.50;24.80;;;;;;5036534;28;20108;-73
2022/04/01 12:28:04;;;;;;;11.50;2.10;;;25.50;21.00;;;;;;5042010;28;20029;-75
2022/04/01 12:30:33;;;;;;;7.57;1.92;;;26.90;19.90;;;;;;5021011;28;20044;-75
2022/04/01 12:33:02;;;;;;;8.02;2.03;;;25.30;20.50;;;;;;5040407;28;20037;-75
2022/04/01 12:35:28;;;;;;;6.50;2.00;;;23.00;23.00;;;;;;5038242;28;20029;-75
2022/04/01 12:38:10;;;;;;;6.70;2.00;;;21.40;24.20;;;;;;5039910;28;20407;-74
2022/04/01 12:40:58;;;;;;;6.93;2.08;;;20.40;25.60;;;;;;5031813;28;20041;-74
2022/04/01 12:43:38;;;;;;;6.15;2.10;;;19.60;26.10;;;;;;5039059;28;20575;-73
2022/04/01 12:46:29;;;;;;;5.72;1.90;;;22.40;23.30;;;;;;5037710;28;20033;-74
2022/04/01 12:49:08;;;;;;;6.40;1.70;;;26.80;18.50;;;;;;5039320;28;20127;-73
2022/04/01 12:51:36;;;;;;;6.03;1.65;;;29.00;16.50;;;;;;5033693;28;20036;-74
2022/04/01 12:54:08;;;;;;;5.13;1.60;;;30.60;15.50;;;;;;5037261;28;20013;-74
2022/04/01 12:56:42;;;;;;;6.88;1.60;;;31.60;14.60;;;;;;5041454;28;20044;-75
2022/04/01 12:59:10;;;;;;;6.43;1.90;;;32.30;13.80;;;;;;5034637;28;20155;-73
2022/04/01 13:01:39;;;;;;;7.68;1.70;;;32.50;13.80;;;;;;5042816;28;20055;-74
2022/04/01 13:04:07;;;;;;;6.20;1.65;;;32.50;13.90;;;;;;5042927;28;20040;-74
2022/04/01 13:06:33;;;;;;;4.45;1.52;;;30.60;14.60;;;;;;5033971;28;20104;-73
2022/04/01 13:09:03;;;;;;;4.25;1.50;;;27.70;17.00;;;;;;5032571;28;20512;-72
2022/04/01 13:11:42;;;;;;;7.70;2.00;;;24.70;19.30;;;;;;5046904;28;20056;-73
2022/04/01 13:14:28;;;;;;;6.47;1.92;;;23.60;20.70;;;;;;5046270;28;20037;-72
2022/04/01 13:16:56;;;;;;;7.20;2.20;;;21.20;22.80;;;;;;5043605;28;20506;-72
2022/04/01 13:19:23;;;;;;;7.38;2.20;;;;;;;;;;5037021;28;20099;-72
2022/04/01 13:21:50;;;;;;;6.10;1.90;;;17.80;27.30;;;;;;5038712;28;20025;-72
2022/04/01 13:24:40;;;;;;;5.38;1.67;;;17.70;27.90;;;;;;5039007;28;20033;-73
2022/04/01 13:27:09;;;;;;;6.35;2.00;;;20.70;24.50;;;;;;5042845;28;20064;-72
2022/04/01 13:29:36;;;;;;;6.68;1.80;;;23.50;22.10;;;;;;5048953;28;20558;-73
2022/04/01 13:32:02;;;;;;;6.45;2.03;;;25.90;19.40;;;;;;5041575;28;20029;-75
2022/04/01 13:34:29;;;;;;;6.90;1.90;;;27.10;18.70;;;;;;5042002;28;20490;-74
2022/04/01 13:36:55;;;;;;;7.95;1.98;;;27.70;18.30;;;;;;5046956;28;20108;-72
2022/04/01 13:39:28;;;;;;;8.60;1.80;;;26.00;19.10;;;;;;5040312;28;20409;-73
2022/04/01 13:41:54;;;;;;;5.18;2.00;;;26.20;18.20;;;;;;5041260;28;20865;-73
2022/04/01 13:44:23;;;;;;;7.55;2.25;;;27.40;17.10;;;;;;5039884;28;20556;-72
2022/04/01 13:46:52;;;;;;;6.00;2.05;;;28.30;16.60;;;;;;5048216;28;20116;-73
2022/04/01 13:49:22;;;;;;;5.32;2.00;;;29.00;16.70;;;;;;5040319;28;20056;-73
2022/04/01 13:51:51;;;;;;;7.50;1.75;;;30.00;15.80;;;;;;5041161;28;20041;-73
2022/04/01 13:54:20;;;;;;;7.35;1.95;;;27.60;16.70;;;;;;5042177;28;20142;-73
2022/04/01 13:56:50;;;;;;;8.18;1.83;;;27.10;17.40;;;;;;5046645;28;20108;-72
2022/04/01 13:59:17;;;;;;;6.32;1.98;;;24.80;18.40;;;;;;5043711;28;20121;-73
2022/04/01 14:01:43;;;;;;;5.43;1.77;;;26.20;17.50;;;;;;5041855;28;20147;-73
2022/04/01 14:04:12;;;;;;;7.22;1.95;;;27.20;16.60;;;;;;5045185;28;20491;-73
2022/04/01 14:06:43;;;;;;;6.40;1.85;;;28.00;16.20;;;;;;5048791;28;20021;-73
2022/04/01 14:09:11;;;;;;;5.13;1.75;;;28.60;16.00;;;;;;5041710;28;20030;-73
2022/04/01 14:11:37;;;;;;;4.75;1.90;;;28.00;16.10;;;;;;5047160;28;20795;-72
2022/04/01 14:14:07;;;;;;;5.88;1.77;;;25.90;17.50;;;;;;5036582;28;20066;-72
2022/04/01 14:16:35;;;;;;;4.88;1.67;;;22.30;21.30;;;;;;5031459;28;20036;-72
2022/04/01 14:19:03;;;;;;;6.35;1.90;;;22.00;22.00;;;;;;5031529;28;20411;-73
2022/04/01 14:21:30;;;;;;;6.22;1.83;;;23.70;20.70;;;;;;5035998;28;20047;-74
2022/04/01 14:23:56;;;;;;;5.00;1.92;;;24.10;19.50;;;;;;5046570;28;20037;-73
2022/04/01 14:26:25;;;;;;;12.02;2.00;;;23.40;20.10;;;;;;5044434;28;20030;-73
2022/04/01 14:32:01;;;;;;;4.90;1.58;;;22.90;20.60;;;;;;4982753;28;20169;-72
2022/04/01 14:34:37;;;;;;;6.22;1.70;;;23.20;20.30;;;;;;4978915;28;20062;-73
2022/04/01 14:37:06;;;;;;;7.43;1.90;;;22.80;20.50;;;;;;4983444;28;20038;-74
2022/04/01 14:39:40;;;;;;;7.30;1.90;;;21.30;21.70;;;;;;4983401;28;20108;-74
2022/04/01 14:42:07;;;;;;;7.32;1.63;;;20.00;23.40;;;;;;4985778;28;20057;-74
2022/04/01 14:44:39;;;;;;;8.20;2.20;;;18.70;24.60;;;;;;4985768;28;20023;-73
2022/04/01 14:47:05;;;;;;;14.77;2.17;;;17.80;25.60;;;;;;4978467;28;20058;-73
2022/04/01 14:49:32;;;;;;;6.85;1.83;;;16.90;25.10;;;;;;4974461;28;20030;-74
2022/04/01 14:51:58;;;;;;;6.28;1.90;;;20.80;22.20;;;;;;4976976;28;20027;-73
2022/04/01 14:54:27;;;;;;;9.25;2.85;;;20.90;22.40;;;;;;4974373;28;20034;-74
2022/04/01 14:56:53;;;;;;;10.73;4.45;;;20.80;22.80;;;;;;4977170;28;20030;-74
2022/04/01 14:59:22;;;;;;;5.85;1.67;;;20.40;24.50;;;;;;4980737;28;20038;-74
2022/04/01 15:01:48;;;;;;;11.30;3.45;;;20.30;23.50;;;;;;4982610;28;20038;-73
2022/04/01 15:04:14;;;;;;;6.32;2.65;;;20.10;23.50;;;;;;4972764;28;20042;-73